createdAt,value
2018-03-31T00:00:20.445Z,53.60
2018-03-31T00:02:47.450Z,53.60
2018-03-31T00:05:14.497Z,53.80
2018-03-31T00:07:42.289Z,53.90
2018-03-31T00:10:09.306Z,53.90
2018-03-31T00:12:36.328Z,53.90
2018-03-31T00:15:03.441Z,54.50
2018-03-31T00:17:30.501Z,54.30
2018-03-31T00:19:58.326Z,55.30
2018-03-31T00:22:25.346Z,54.70
2018-03-31T00:24:53.136Z,54.80
2018-03-31T00:27:20.186Z,54.80
2018-03-31T00:29:47.950Z,55.00
2018-03-31T00:32:14.996Z,55.00
2018-03-31T00:34:42.015Z,54.30
2018-03-31T00:37:09.017Z,54.70
2018-03-31T00:39:36.074Z,55.30
2018-03-31T00:42:04.664Z,55.10
2018-03-31T00:44:31.695Z,55.00
2018-03-31T00:46:58.710Z,55.20
2018-03-31T00:49:25.757Z,54.80
2018-03-31T00:51:52.789Z,55.20
2018-03-31T00:54:19.821Z,55.40
2018-03-31T00:56:46.852Z,55.00
2018-03-31T00:59:13.875Z,55.10
2018-03-31T01:01:40.899Z,55.10
2018-03-31T01:04:07.893Z,55.00
2018-03-31T01:06:35.497Z,55.30
2018-03-31T01:09:03.286Z,55.80
2018-03-31T01:11:30.306Z,55.80
2018-03-31T01:13:57.341Z,55.70
2018-03-31T01:16:24.370Z,55.60
2018-03-31T01:18:51.376Z,55.60
2018-03-31T01:21:18.404Z,55.50
2018-03-31T01:23:45.454Z,55.90
2018-03-31T01:26:12.655Z,55.90
2018-03-31T01:28:39.695Z,55.90
2018-03-31T01:31:06.787Z,55.50
2018-03-31T01:33:34.575Z,55.40
2018-03-31T01:36:02.446Z,55.90
2018-03-31T01:38:30.238Z,55.60
2018-03-31T01:40:58.193Z,55.40
2018-03-31T01:43:25.352Z,55.40
2018-03-31T01:45:52.356Z,55.60
2018-03-31T01:48:19.350Z,55.30
2018-03-31T01:50:46.391Z,55.50
2018-03-31T01:53:13.608Z,55.60
2018-03-31T01:55:41.413Z,55.80
2018-03-31T01:58:08.440Z,55.70
2018-03-31T02:00:35.457Z,55.90
2018-03-31T02:03:02.636Z,56.20
2018-03-31T02:05:29.647Z,55.80
2018-03-31T02:07:56.659Z,56.50
2018-03-31T02:10:23.712Z,55.60
2018-03-31T02:12:50.767Z,55.50
2018-03-31T02:15:17.768Z,55.60
2018-03-31T02:17:45.531Z,56.20
2018-03-31T02:20:12.568Z,55.70
2018-03-31T02:22:39.552Z,55.70
2018-03-31T02:25:06.590Z,56.10
2018-03-31T02:27:33.595Z,55.90
2018-03-31T02:30:01.641Z,56.50
2018-03-31T02:32:28.676Z,56.50
2018-03-31T02:34:55.727Z,55.90
2018-03-31T02:37:22.768Z,56.50
2018-03-31T02:39:49.805Z,55.90
2018-03-31T02:42:17.655Z,56.30
2018-03-31T02:44:44.756Z,56.20
2018-03-31T02:47:11.777Z,56.00
2018-03-31T02:49:38.834Z,55.80
2018-03-31T02:52:05.917Z,56.00
2018-03-31T02:54:33.709Z,56.20
2018-03-31T02:57:00.735Z,56.20
2018-03-31T02:59:27.794Z,56.30
2018-03-31T03:01:54.849Z,56.20
2018-03-31T03:04:21.919Z,56.30
2018-03-31T03:06:48.986Z,56.70
2018-03-31T03:09:16.762Z,56.60
2018-03-31T03:11:44.873Z,56.50
2018-03-31T03:14:11.882Z,56.50
2018-03-31T03:16:38.987Z,57.80
2018-03-31T03:19:06.038Z,58.20
2018-03-31T03:21:33.873Z,56.70
2018-03-31T03:24:00.904Z,56.60
2018-03-31T03:26:27.954Z,56.90
2018-03-31T03:28:55.130Z,56.60
2018-03-31T03:31:22.302Z,57.10
2018-03-31T03:33:49.941Z,56.80
2018-03-31T03:36:16.943Z,56.70
2018-03-31T03:38:44.114Z,56.40
2018-03-31T03:41:11.120Z,56.20
2018-03-31T03:43:38.148Z,56.50
2018-03-31T03:46:05.204Z,56.20
2018-03-31T03:48:32.200Z,56.40
2018-03-31T03:50:59.192Z,56.50
2018-03-31T03:53:26.256Z,56.10
2018-03-31T03:55:53.371Z,56.30
2018-03-31T03:58:20.466Z,57.00
2018-03-31T04:00:47.500Z,56.10
2018-03-31T04:03:14.538Z,56.50
2018-03-31T04:05:41.574Z,56.40
2018-03-31T04:08:08.579Z,56.20
2018-03-31T04:10:35.611Z,56.60
2018-03-31T04:13:03.412Z,56.30
2018-03-31T04:15:30.441Z,56.30
2018-03-31T04:17:57.475Z,56.50
2018-03-31T04:20:24.471Z,56.70
2018-03-31T04:22:52.287Z,57.20
2018-03-31T04:25:19.402Z,57.20
2018-03-31T04:27:47.171Z,56.20
2018-03-31T04:30:14.981Z,55.80
2018-03-31T04:32:42.105Z,55.80
2018-03-31T04:35:09.173Z,56.10
2018-03-31T04:37:36.969Z,56.60
2018-03-31T04:40:04.787Z,56.30
2018-03-31T04:42:31.795Z,56.30
2018-03-31T04:44:59.651Z,55.70
2018-03-31T04:47:26.677Z,55.70
2018-03-31T04:49:53.683Z,56.20
2018-03-31T04:52:21.481Z,56.20
2018-03-31T04:54:48.485Z,56.20
2018-03-31T04:57:15.538Z,55.70
2018-03-31T04:59:42.541Z,55.70
2018-03-31T05:02:10.354Z,55.20
2018-03-31T05:04:37.349Z,55.10
2018-03-31T05:07:04.358Z,55.50
2018-03-31T05:09:31.495Z,55.80
2018-03-31T05:11:59.313Z,55.70
2018-03-31T05:14:27.163Z,55.50
2018-03-31T05:16:54.255Z,55.50
2018-03-31T05:19:21.305Z,55.60
2018-03-31T05:21:48.302Z,55.40
2018-03-31T05:24:15.359Z,55.60
2018-03-31T05:26:42.370Z,55.50
2018-03-31T05:29:10.654Z,55.90
2018-03-31T05:31:37.930Z,55.90
2018-03-31T05:34:04.979Z,56.10
2018-03-31T05:36:31.995Z,56.40
2018-03-31T05:38:58.984Z,56.10
2018-03-31T05:41:26.991Z,56.00
2018-03-31T05:43:54.027Z,56.00
2018-03-31T05:46:21.911Z,56.00
2018-03-31T05:48:48.944Z,56.00
2018-03-31T05:51:16.038Z,56.00
2018-03-31T05:53:43.191Z,55.80
2018-03-31T05:56:10.242Z,55.60
2018-03-31T05:58:38.042Z,55.90
2018-03-31T06:01:05.040Z,55.90
2018-03-31T06:03:32.109Z,56.60
2018-03-31T06:05:59.163Z,56.70
2018-03-31T06:08:26.170Z,56.30
2018-03-31T06:10:53.196Z,56.40
2018-03-31T06:13:20.267Z,56.40
2018-03-31T06:15:49.042Z,56.40
2018-03-31T06:18:16.066Z,56.30
2018-03-31T06:20:43.181Z,56.00
2018-03-31T06:23:10.975Z,56.80
2018-03-31T06:25:38.764Z,56.30
2018-03-31T06:28:05.813Z,56.30
2018-03-31T06:30:33.629Z,56.60
2018-03-31T06:33:00.729Z,56.60
2018-03-31T06:35:27.726Z,56.70
2018-03-31T06:37:54.781Z,56.40
2018-03-31T06:40:21.833Z,56.30
2018-03-31T06:42:49.428Z,57.60
2018-03-31T06:45:17.053Z,57.30
2018-03-31T06:47:44.114Z,58.30
2018-03-31T06:50:12.209Z,58.70
2018-03-31T06:52:39.964Z,58.40
2018-03-31T06:55:08.510Z,59.20
2018-03-31T06:57:35.513Z,59.20
2018-03-31T07:00:02.679Z,59.80
2018-03-31T07:02:31.173Z,59.20
2018-03-31T07:04:58.288Z,59.10
2018-03-31T07:07:25.474Z,60.40
2018-03-31T07:09:52.473Z,59.50
2018-03-31T07:12:20.360Z,59.90
2018-03-31T07:14:48.121Z,60.70
2018-03-31T07:17:15.180Z,60.70
2018-03-31T07:19:42.962Z,59.90
2018-03-31T07:22:10.803Z,61.10
2018-03-31T07:24:37.849Z,61.00
2018-03-31T07:27:04.861Z,61.00
2018-03-31T07:29:32.657Z,61.50
2018-03-31T07:31:59.667Z,61.50
2018-03-31T07:34:26.718Z,61.90
2018-03-31T07:36:53.740Z,62.30
2018-03-31T07:39:20.970Z,62.80
2018-03-31T07:41:47.964Z,61.60
2018-03-31T07:44:15.766Z,62.80
2018-03-31T07:46:42.778Z,64.00
2018-03-31T07:49:10.029Z,62.10
2018-03-31T07:51:37.836Z,62.90
2018-03-31T07:54:04.880Z,62.90
2018-03-31T07:56:32.672Z,61.70
2018-03-31T07:58:59.693Z,61.60
2018-03-31T08:01:26.772Z,62.50
2018-03-31T08:03:54.574Z,64.00
2018-03-31T08:06:21.910Z,64.00
2018-03-31T08:08:49.070Z,63.10
2018-03-31T08:11:16.412Z,63.20
2018-03-31T08:13:44.222Z,63.50
2018-03-31T08:16:12.046Z,65.10
2018-03-31T08:18:39.048Z,65.00
2018-03-31T08:21:06.133Z,64.20
2018-03-31T08:23:33.142Z,63.90
2018-03-31T08:26:00.246Z,64.70
2018-03-31T08:28:28.045Z,65.60
2018-03-31T08:30:55.097Z,65.60
2018-03-31T08:33:22.189Z,65.40
2018-03-31T08:35:49.184Z,65.20
2018-03-31T08:38:17.036Z,65.10
2018-03-31T08:40:44.054Z,65.00
2018-03-31T08:43:11.080Z,65.10
2018-03-31T08:45:38.869Z,65.10
2018-03-31T08:48:06.667Z,64.10
2018-03-31T08:50:33.675Z,64.10
2018-03-31T08:53:01.510Z,65.70
2018-03-31T08:55:29.447Z,64.60
2018-03-31T08:57:57.270Z,65.10
2018-03-31T09:00:24.924Z,65.10
2018-03-31T09:02:52.736Z,65.20
2018-03-31T09:05:19.740Z,65.20
2018-03-31T09:07:47.644Z,64.70
2018-03-31T09:10:14.651Z,64.70
2018-03-31T09:12:41.666Z,65.00
2018-03-31T09:15:08.727Z,65.90
2018-03-31T09:17:35.747Z,66.10
2018-03-31T09:20:02.917Z,65.80
2018-03-31T09:22:29.958Z,65.90
2018-03-31T09:24:57.987Z,66.50
2018-03-31T09:27:24.986Z,66.50
2018-03-31T09:29:52.009Z,65.90
2018-03-31T09:32:19.958Z,65.90
2018-03-31T09:34:47.716Z,65.90
2018-03-31T09:37:14.759Z,65.90
2018-03-31T09:39:41.789Z,66.20
2018-03-31T09:42:08.800Z,66.00
2018-03-31T09:44:35.877Z,66.10
2018-03-31T09:47:03.705Z,65.40
2018-03-31T09:49:31.415Z,65.40
2018-03-31T09:51:58.410Z,66.40
2018-03-31T09:54:25.596Z,65.90
2018-03-31T09:56:52.679Z,66.10
2018-03-31T09:59:19.676Z,66.10
2018-03-31T10:01:47.479Z,67.40
2018-03-31T10:04:14.772Z,67.40
2018-03-31T10:06:41.877Z,67.60
2018-03-31T10:09:09.670Z,66.90
2018-03-31T10:11:36.679Z,66.90
2018-03-31T10:14:03.791Z,65.90
2018-03-31T10:16:30.847Z,66.90
2018-03-31T10:18:57.895Z,65.70
2018-03-31T10:21:25.799Z,65.10
2018-03-31T10:23:53.660Z,66.30
2018-03-31T10:26:20.724Z,66.20
2018-03-31T10:28:47.804Z,66.60
2018-03-31T10:31:14.849Z,66.80
2018-03-31T10:33:41.986Z,67.40
2018-03-31T10:36:09.885Z,67.80
2018-03-31T10:38:36.925Z,67.80
2018-03-31T10:41:04.878Z,66.20
2018-03-31T10:43:31.973Z,66.10
2018-03-31T10:45:59.769Z,65.80
2018-03-31T10:48:26.772Z,65.80
2018-03-31T10:50:53.884Z,65.90
2018-03-31T10:53:20.884Z,64.80
2018-03-31T10:55:47.919Z,64.80
2018-03-31T10:58:15.092Z,65.00
2018-03-31T11:00:42.149Z,64.50
2018-03-31T11:03:09.352Z,64.10
2018-03-31T11:05:36.419Z,64.50
2018-03-31T11:08:03.451Z,63.70
2018-03-31T11:10:30.495Z,63.40
2018-03-31T11:12:57.513Z,63.50
2018-03-31T11:15:24.531Z,64.30
2018-03-31T11:17:53.080Z,65.00
2018-03-31T11:20:20.100Z,64.90
2018-03-31T11:22:47.141Z,65.00
2018-03-31T11:25:14.143Z,66.00
2018-03-31T11:27:41.196Z,65.30
2018-03-31T11:30:08.969Z,64.10
2018-03-31T11:32:36.715Z,64.40
2018-03-31T11:35:04.872Z,63.80
2018-03-31T11:37:32.210Z,63.70
2018-03-31T11:39:59.242Z,63.60
2018-03-31T11:42:26.334Z,64.60
2018-03-31T11:44:54.083Z,64.40
2018-03-31T11:47:21.907Z,65.10
2018-03-31T11:49:48.959Z,65.10
2018-03-31T11:52:15.945Z,65.00
2018-03-31T11:54:42.981Z,64.70
2018-03-31T11:57:10.064Z,64.60
2018-03-31T11:59:37.161Z,63.70
2018-03-31T12:02:04.933Z,63.60
2018-03-31T12:04:32.703Z,63.50
2018-03-31T12:06:59.733Z,63.40
2018-03-31T12:09:26.747Z,62.20
2018-03-31T12:11:54.570Z,63.40
2018-03-31T12:14:21.591Z,63.40
2018-03-31T12:16:48.932Z,63.00
2018-03-31T12:19:16.730Z,62.20
2018-03-31T12:21:43.767Z,62.10
2018-03-31T12:24:12.329Z,61.80
2018-03-31T12:26:39.439Z,61.70
2018-03-31T12:29:06.486Z,61.00
2018-03-31T12:31:34.289Z,61.90
2018-03-31T12:34:01.302Z,61.80
2018-03-31T12:36:28.603Z,61.30
2018-03-31T12:38:55.599Z,61.40
2018-03-31T12:41:23.479Z,61.70
2018-03-31T12:43:50.468Z,61.60
2018-03-31T12:46:17.649Z,61.60
2018-03-31T12:48:45.481Z,61.60
2018-03-31T12:51:12.511Z,61.50
2018-03-31T12:53:39.509Z,61.00
2018-03-31T12:56:06.617Z,61.80
2018-03-31T12:58:33.780Z,61.00
2018-03-31T13:01:00.820Z,59.90
2018-03-31T13:03:28.587Z,59.40
2018-03-31T13:05:55.882Z,59.30
2018-03-31T13:08:22.883Z,60.00
2018-03-31T13:10:49.982Z,59.80
2018-03-31T13:13:17.743Z,59.90
2018-03-31T13:15:44.738Z,59.90
2018-03-31T13:18:11.756Z,59.80
2018-03-31T13:20:39.515Z,59.20
2018-03-31T13:23:06.709Z,59.20
2018-03-31T13:25:34.976Z,59.70
2018-03-31T13:28:02.012Z,59.70
2018-03-31T13:30:29.211Z,60.00
2018-03-31T13:32:57.008Z,60.90
2018-03-31T13:35:24.813Z,60.50
2018-03-31T13:37:52.455Z,60.50
2018-03-31T13:40:20.587Z,61.00
2018-03-31T13:42:47.611Z,61.00
2018-03-31T13:45:14.624Z,60.80
2018-03-31T13:47:41.654Z,61.00
2018-03-31T13:50:08.650Z,61.50
2018-03-31T13:52:35.694Z,60.80
2018-03-31T13:55:03.423Z,62.90
2018-03-31T13:57:31.335Z,61.80
2018-03-31T13:59:58.346Z,59.90
2018-03-31T14:02:26.241Z,59.70
2018-03-31T14:04:53.315Z,59.70
2018-03-31T14:07:20.387Z,60.30
2018-03-31T14:09:47.407Z,60.40
2018-03-31T14:12:15.229Z,60.10
2018-03-31T14:14:42.271Z,60.10
2018-03-31T14:17:09.291Z,60.30
2018-03-31T14:19:37.088Z,60.50
2018-03-31T14:22:04.087Z,60.50
2018-03-31T14:24:31.101Z,61.40
2018-03-31T14:26:58.107Z,62.10
2018-03-31T14:29:25.163Z,61.30
2018-03-31T14:31:52.209Z,61.30
2018-03-31T14:34:19.251Z,61.40
2018-03-31T14:36:46.268Z,61.90
2018-03-31T14:39:13.358Z,61.90
2018-03-31T14:41:40.362Z,62.10
2018-03-31T14:44:07.428Z,62.00
2018-03-31T14:46:34.539Z,62.80
2018-03-31T14:49:01.604Z,63.30
2018-03-31T14:51:28.613Z,63.60
2018-03-31T14:53:55.638Z,64.00
2018-03-31T14:56:22.683Z,64.00
2018-03-31T14:58:49.721Z,64.20
2018-03-31T15:01:17.562Z,64.90
2018-03-31T15:03:44.617Z,64.90
2018-03-31T15:06:11.713Z,64.60
2018-03-31T15:08:39.594Z,63.50
2018-03-31T15:11:07.390Z,63.70
2018-03-31T15:13:34.405Z,63.70
2018-03-31T15:16:02.330Z,64.90
2018-03-31T15:18:29.346Z,64.90
2018-03-31T15:20:56.388Z,65.10
2018-03-31T15:23:23.440Z,64.90
2018-03-31T15:25:50.484Z,65.30
2018-03-31T15:28:18.033Z,65.90
2018-03-31T15:30:45.208Z,66.30
2018-03-31T15:33:12.255Z,66.40
2018-03-31T15:35:39.270Z,66.60
2018-03-31T15:38:06.374Z,66.40
2018-03-31T15:40:33.381Z,66.30
2018-03-31T15:43:00.505Z,66.40
2018-03-31T15:45:27.609Z,66.90
2018-03-31T15:47:54.605Z,66.90
2018-03-31T15:50:22.400Z,67.30
2018-03-31T15:52:49.510Z,67.30
2018-03-31T15:55:16.521Z,67.60
2018-03-31T15:57:43.760Z,67.70
2018-03-31T16:00:11.559Z,67.50
2018-03-31T16:02:38.693Z,67.50
2018-03-31T16:05:06.476Z,67.60
2018-03-31T16:07:34.301Z,67.60
2018-03-31T16:10:01.307Z,67.60
2018-03-31T16:12:29.296Z,67.90
2018-03-31T16:14:57.066Z,70.60
2018-03-31T16:17:25.108Z,69.60
2018-03-31T16:19:52.237Z,69.60
2018-03-31T16:22:19.588Z,65.20
2018-03-31T16:24:46.649Z,64.30
2018-03-31T16:27:13.686Z,65.80
2018-03-31T16:29:40.696Z,67.10
2018-03-31T16:32:07.968Z,68.10
2018-03-31T16:34:35.030Z,69.70
2018-03-31T16:37:02.067Z,69.60
2018-03-31T16:39:29.191Z,70.20
2018-03-31T16:41:56.216Z,70.50
2018-03-31T16:44:23.283Z,71.00
2018-03-31T16:46:50.308Z,71.10
2018-03-31T16:49:17.513Z,71.30
2018-03-31T16:51:44.515Z,71.40
2018-03-31T16:54:11.599Z,71.30
2018-03-31T16:56:39.048Z,71.50
2018-03-31T16:59:06.051Z,71.50
2018-03-31T17:01:33.096Z,71.80
2018-03-31T17:04:00.195Z,71.80
2018-03-31T17:06:27.730Z,72.10
2018-03-31T17:08:54.787Z,71.90
2018-03-31T17:11:22.117Z,72.00
2018-03-31T17:13:49.272Z,72.90
2018-03-31T17:16:16.337Z,72.40
2018-03-31T17:18:43.346Z,72.80
2018-03-31T17:21:11.915Z,72.70
2018-03-31T17:23:38.930Z,72.60
2018-03-31T17:26:07.080Z,72.90
2018-03-31T17:28:34.265Z,72.90
2018-03-31T17:31:01.304Z,73.20
2018-03-31T17:33:29.265Z,73.80
2018-03-31T17:38:29.649Z,73.90
2018-03-31T17:40:56.720Z,73.60
2018-03-31T17:43:23.721Z,73.90
2018-03-31T17:45:50.758Z,73.70
2018-03-31T17:48:17.900Z,73.80
2018-03-31T17:50:44.931Z,74.00
2018-03-31T17:53:11.966Z,74.30
2018-03-31T17:55:38.980Z,74.80
2018-03-31T17:58:06.011Z,75.00
2018-03-31T18:00:33.990Z,75.40
2018-03-31T18:03:01.016Z,75.40
2018-03-31T18:05:28.053Z,75.40
2018-03-31T18:07:55.875Z,75.90
2018-03-31T18:10:22.897Z,75.90
2018-03-31T18:12:50.719Z,75.70
2018-03-31T18:15:18.584Z,76.20
2018-03-31T18:17:45.602Z,76.20
2018-03-31T18:20:13.394Z,77.20
2018-03-31T18:22:41.182Z,77.10
2018-03-31T18:25:08.211Z,77.10
2018-03-31T18:27:35.392Z,77.40
2018-03-31T18:30:03.213Z,77.40
2018-03-31T18:32:30.277Z,77.30
2018-03-31T18:34:57.320Z,77.20
2018-03-31T18:37:24.360Z,77.50
2018-03-31T18:39:51.365Z,77.70
2018-03-31T18:42:18.401Z,77.70
2018-03-31T18:44:45.520Z,77.80
2018-03-31T18:47:12.519Z,78.00
2018-03-31T18:49:40.421Z,78.10
2018-03-31T18:52:07.543Z,78.10
2018-03-31T18:54:34.594Z,78.40
2018-03-31T18:57:01.588Z,78.20
2018-03-31T18:59:28.758Z,78.20
2018-03-31T19:01:55.899Z,78.30
2018-03-31T19:04:22.935Z,78.10
2018-03-31T19:06:49.942Z,78.40
2018-03-31T19:09:17.051Z,78.40
2018-03-31T19:11:44.280Z,78.00
2018-03-31T19:14:11.323Z,78.30
2018-03-31T19:16:44.030Z,78.60
2018-03-31T19:19:11.855Z,78.80
2018-03-31T19:21:39.706Z,78.80
2018-03-31T19:24:08.199Z,78.70
2018-03-31T19:26:36.208Z,78.70
2018-03-31T19:29:03.239Z,78.70
2018-03-31T19:31:31.024Z,79.00
2018-03-31T19:33:58.853Z,78.70
2018-03-31T19:36:25.880Z,78.70
2018-03-31T19:38:52.981Z,78.20
2018-03-31T19:41:20.038Z,78.20
2018-03-31T19:43:47.135Z,78.40
2018-03-31T19:46:14.917Z,78.70
2018-03-31T19:48:41.909Z,78.00
2018-03-31T19:51:08.920Z,78.60
2018-03-31T19:53:36.686Z,79.10
2018-03-31T19:56:03.942Z,78.50
2018-03-31T19:58:30.962Z,78.20
2018-03-31T20:00:58.069Z,78.10
2018-03-31T20:03:25.151Z,77.80
2018-03-31T20:05:52.210Z,78.00
2018-03-31T20:08:20.027Z,78.30
2018-03-31T20:10:47.707Z,78.30
2018-03-31T20:13:14.737Z,78.20
2018-03-31T20:15:42.006Z,78.30
2018-03-31T20:18:09.038Z,78.30
2018-03-31T20:20:36.818Z,78.20
2018-03-31T20:23:04.809Z,77.60
2018-03-31T20:25:31.890Z,77.60
2018-03-31T20:27:58.948Z,78.10
2018-03-31T20:30:26.008Z,78.20
2018-03-31T20:32:53.067Z,78.20
2018-03-31T20:35:20.125Z,78.30
2018-03-31T20:37:48.013Z,78.20
2018-03-31T20:40:15.119Z,78.90
2018-03-31T20:42:42.132Z,78.00
2018-03-31T20:45:10.274Z,78.40
2018-03-31T20:47:38.072Z,77.80
2018-03-31T20:50:05.194Z,78.20
2018-03-31T20:52:32.188Z,78.00
2018-03-31T20:54:59.276Z,78.40
2018-03-31T20:57:26.298Z,78.10
2018-03-31T20:59:54.105Z,78.80
2018-03-31T21:02:21.177Z,78.70
2018-03-31T21:04:48.232Z,79.70
2018-03-31T21:07:15.261Z,87.40
2018-03-31T21:09:43.140Z,72.30
2018-03-31T21:12:11.123Z,66.30
2018-03-31T21:14:38.928Z,62.00
2018-03-31T21:17:06.215Z,61.90
2018-03-31T21:19:33.324Z,61.50
2018-03-31T21:22:01.106Z,66.20
2018-03-31T21:24:28.754Z,66.20
2018-03-31T21:26:55.838Z,71.40
2018-03-31T21:29:23.102Z,68.60
2018-03-31T21:31:50.923Z,70.80
2018-03-31T21:34:17.935Z,70.70
2018-03-31T21:36:46.694Z,72.50
2018-03-31T21:39:13.744Z,72.50
2018-03-31T21:41:40.859Z,73.30
2018-03-31T21:44:08.714Z,74.20
2018-03-31T21:46:36.734Z,74.20
2018-03-31T21:49:03.797Z,74.10
2018-03-31T21:51:30.853Z,74.50
2018-03-31T21:53:57.947Z,75.30
2018-03-31T21:56:25.064Z,74.90
2018-03-31T21:58:52.119Z,75.70
2018-03-31T22:01:19.159Z,75.60
2018-03-31T22:03:47.043Z,76.80
2018-03-31T22:06:14.870Z,76.30
2018-03-31T22:08:41.962Z,76.30
2018-03-31T22:11:09.064Z,77.20
2018-03-31T22:13:41.964Z,77.30
2018-03-31T22:16:09.024Z,77.50
2018-03-31T22:18:36.076Z,77.40
2018-03-31T22:21:03.140Z,77.70
2018-03-31T22:23:30.202Z,77.20
2018-03-31T22:25:57.351Z,77.80
2018-03-31T22:28:24.406Z,78.00
2018-03-31T22:30:53.140Z,78.60
2018-03-31T22:33:20.167Z,78.60
2018-03-31T22:38:21.164Z,78.20
2018-03-31T22:40:48.191Z,78.50
2018-03-31T22:43:16.026Z,78.70
2018-03-31T22:45:43.409Z,78.70
2018-03-31T22:48:10.485Z,79.00
2018-03-31T22:50:37.490Z,79.20
2018-03-31T22:53:05.025Z,79.00
2018-03-31T22:55:32.804Z,78.90
2018-03-31T22:58:00.599Z,79.40
2018-03-31T23:03:00.795Z,79.70
2018-03-31T23:05:28.467Z,80.00
2018-03-31T23:10:28.871Z,80.10
2018-03-31T23:12:57.423Z,79.60
2018-03-31T23:15:24.442Z,79.60
2018-03-31T23:17:52.244Z,79.90
2018-03-31T23:20:19.294Z,79.70
2018-03-31T23:22:46.338Z,79.50
2018-03-31T23:25:14.138Z,79.40
2018-03-31T23:27:41.186Z,79.40
2018-03-31T23:30:08.198Z,79.90
2018-03-31T23:32:35.752Z,80.00
2018-03-31T23:35:02.853Z,80.10
2018-03-31T23:37:30.636Z,79.70
2018-03-31T23:39:58.435Z,79.70
2018-03-31T23:42:25.445Z,79.60
2018-03-31T23:44:52.517Z,80.10
2018-03-31T23:47:19.537Z,80.60
2018-03-31T23:49:46.570Z,79.80
2018-03-31T23:52:13.613Z,80.00
2018-03-31T23:54:41.410Z,80.60
2018-03-31T23:57:08.416Z,80.60
2018-03-31T23:59:35.501Z,80.50
